sensor_id;sensor_type;location;lat;lon;timestamp;P1;durP1;ratioP1;P2;durP2;ratioP2
24729;SDS011;12832;52.392;13.066;2023-04-03T00:00:31;0.43;;;0.40;;
24729;SDS011;12832;52.392;13.066;2023-04-03T00:02:57;0.43;;;0.40;;
24729;SDS011;12832;52.392;13.066;2023-04-03T00:05:23;0.40;;;0.40;;
24729;SDS011;12832;52.392;13.066;2023-04-03T00:07:50;0.38;;;0.38;;
24729;SDS011;12832;52.392;13.066;2023-04-03T00:10:16;0.40;;;0.40;;
24729;SDS011;12832;52.392;13.066;2023-04-03T00:12:42;0.68;;;0.40;;
24729;SDS011;12832;52.392;13.066;2023-04-03T00:15:08;0.38;;;0.38;;
24729;SDS011;12832;52.392;13.066;2023-04-03T00:17:35;0.40;;;0.32;;
24729;SDS011;12832;52.392;13.066;2023-04-03T00:20:01;0.30;;;0.30;;
24729;SDS011;12832;52.392;13.066;2023-04-03T00:22:28;0.30;;;0.30;;
24729;SDS011;12832;52.392;13.066;2023-04-03T00:24:55;0.40;;;0.40;;
24729;SDS011;12832;52.392;13.066;2023-04-03T00:27:21;0.60;;;0.40;;
24729;SDS011;12832;52.392;13.066;2023-04-03T00:29:47;0.30;;;0.30;;
24729;SDS011;12832;52.392;13.066;2023-04-03T00:32:13;0.68;;;0.30;;
24729;SDS011;12832;52.392;13.066;2023-04-03T00:34:39;1.05;;;0.40;;
24729;SDS011;12832;52.392;13.066;2023-04-03T00:37:06;0.40;;;0.30;;
24729;SDS011;12832;52.392;13.066;2023-04-03T00:39:32;0.50;;;0.40;;
24729;SDS011;12832;52.392;13.066;2023-04-03T00:41:58;0.38;;;0.30;;
24729;SDS011;12832;52.392;13.066;2023-04-03T00:46:53;0.32;;;0.32;;
24729;SDS011;12832;52.392;13.066;2023-04-03T00:49:19;0.55;;;0.40;;
24729;SDS011;12832;52.392;13.066;2023-04-03T00:51:46;0.40;;;0.38;;
24729;SDS011;12832;52.392;13.066;2023-04-03T00:54:12;0.38;;;0.38;;
24729;SDS011;12832;52.392;13.066;2023-04-03T00:56:38;0.30;;;0.30;;
24729;SDS011;12832;52.392;13.066;2023-04-03T00:59:08;0.35;;;0.35;;
24729;SDS011;12832;52.392;13.066;2023-04-03T01:01:38;0.40;;;0.40;;
24729;SDS011;12832;52.392;13.066;2023-04-03T01:04:04;0.40;;;0.40;;
24729;SDS011;12832;52.392;13.066;2023-04-03T01:06:33;0.40;;;0.40;;
24729;SDS011;12832;52.392;13.066;2023-04-03T01:09:01;0.45;;;0.45;;
24729;SDS011;12832;52.392;13.066;2023-04-03T01:11:29;0.30;;;0.30;;
24729;SDS011;12832;52.392;13.066;2023-04-03T01:13:55;0.30;;;0.30;;
24729;SDS011;12832;52.392;13.066;2023-04-03T01:16:22;0.25;;;0.25;;
24729;SDS011;12832;52.392;13.066;2023-04-03T01:18:48;0.30;;;0.30;;
24729;SDS011;12832;52.392;13.066;2023-04-03T01:26:52;0.30;;;0.30;;
24729;SDS011;12832;52.392;13.066;2023-04-03T01:29:19;0.40;;;0.40;;
24729;SDS011;12832;52.392;13.066;2023-04-03T01:34:12;0.35;;;0.28;;
24729;SDS011;12832;52.392;13.066;2023-04-03T01:36:38;0.28;;;0.28;;
24729;SDS011;12832;52.392;13.066;2023-04-03T01:39:04;0.35;;;0.20;;
24729;SDS011;12832;52.392;13.066;2023-04-03T01:41:30;0.45;;;0.40;;
24729;SDS011;12832;52.392;13.066;2023-04-03T01:43:56;0.35;;;0.35;;
24729;SDS011;12832;52.392;13.066;2023-04-03T01:46:22;0.30;;;0.30;;
24729;SDS011;12832;52.392;13.066;2023-04-03T01:48:48;0.20;;;0.20;;
24729;SDS011;12832;52.392;13.066;2023-04-03T01:51:15;0.30;;;0.30;;
24729;SDS011;12832;52.392;13.066;2023-04-03T01:53:41;0.20;;;0.20;;
24729;SDS011;12832;52.392;13.066;2023-04-03T01:56:08;0.40;;;0.40;;
24729;SDS011;12832;52.392;13.066;2023-04-03T01:58:34;0.40;;;0.30;;
24729;SDS011;12832;52.392;13.066;2023-04-03T02:01:01;0.77;;;0.40;;
24729;SDS011;12832;52.392;13.066;2023-04-03T02:03:27;0.47;;;0.40;;
24729;SDS011;12832;52.392;13.066;2023-04-03T02:05:53;0.40;;;0.30;;
24729;SDS011;12832;52.392;13.066;2023-04-03T02:08:19;0.40;;;0.40;;
24729;SDS011;12832;52.392;13.066;2023-04-03T02:10:49;0.20;;;0.20;;
24729;SDS011;12832;52.392;13.066;2023-04-03T02:13:16;0.35;;;0.30;;
24729;SDS011;12832;52.392;13.066;2023-04-03T02:15:42;0.30;;;0.30;;
24729;SDS011;12832;52.392;13.066;2023-04-03T02:18:08;0.60;;;0.50;;
24729;SDS011;12832;52.392;13.066;2023-04-03T02:20:35;0.40;;;0.40;;
24729;SDS011;12832;52.392;13.066;2023-04-03T02:23:01;0.40;;;0.40;;
24729;SDS011;12832;52.392;13.066;2023-04-03T02:25:28;0.30;;;0.30;;
24729;SDS011;12832;52.392;13.066;2023-04-03T02:27:56;0.40;;;0.40;;
24729;SDS011;12832;52.392;13.066;2023-04-03T02:30:22;0.30;;;0.30;;
24729;SDS011;12832;52.392;13.066;2023-04-03T02:32:48;0.52;;;0.30;;
24729;SDS011;12832;52.392;13.066;2023-04-03T02:35:15;0.30;;;0.30;;
24729;SDS011;12832;52.392;13.066;2023-04-03T02:37:41;0.40;;;0.40;;
24729;SDS011;12832;52.392;13.066;2023-04-03T02:40:07;0.30;;;0.30;;
24729;SDS011;12832;52.392;13.066;2023-04-03T02:42:33;0.32;;;0.30;;
24729;SDS011;12832;52.392;13.066;2023-04-03T02:45:00;0.35;;;0.35;;
24729;SDS011;12832;52.392;13.066;2023-04-03T02:47:26;0.38;;;0.38;;
24729;SDS011;12832;52.392;13.066;2023-04-03T02:49:53;0.50;;;0.40;;
24729;SDS011;12832;52.392;13.066;2023-04-03T02:52:20;0.63;;;0.38;;
24729;SDS011;12832;52.392;13.066;2023-04-03T02:54:46;0.50;;;0.50;;
24729;SDS011;12832;52.392;13.066;2023-04-03T02:57:12;0.30;;;0.30;;
24729;SDS011;12832;52.392;13.066;2023-04-03T02:59:38;0.40;;;0.30;;
24729;SDS011;12832;52.392;13.066;2023-04-03T03:02:09;0.30;;;0.30;;
24729;SDS011;12832;52.392;13.066;2023-04-03T03:04:35;0.68;;;0.40;;
24729;SDS011;12832;52.392;13.066;2023-04-03T03:07:02;0.30;;;0.30;;
24729;SDS011;12832;52.392;13.066;2023-04-03T03:09:29;0.30;;;0.30;;
24729;SDS011;12832;52.392;13.066;2023-04-03T03:11:55;0.38;;;0.38;;
24729;SDS011;12832;52.392;13.066;2023-04-03T03:14:22;0.30;;;0.30;;
24729;SDS011;12832;52.392;13.066;2023-04-03T03:16:49;0.68;;;0.40;;
24729;SDS011;12832;52.392;13.066;2023-04-03T03:19:15;0.20;;;0.20;;
24729;SDS011;12832;52.392;13.066;2023-04-03T03:21:41;0.35;;;0.35;;
24729;SDS011;12832;52.392;13.066;2023-04-03T03:24:07;0.30;;;0.30;;
24729;SDS011;12832;52.392;13.066;2023-04-03T03:26:34;0.30;;;0.30;;
24729;SDS011;12832;52.392;13.066;2023-04-03T03:29:00;0.28;;;0.28;;
24729;SDS011;12832;52.392;13.066;2023-04-03T03:31:26;0.50;;;0.30;;
24729;SDS011;12832;52.392;13.066;2023-04-03T03:33:52;0.32;;;0.20;;
24729;SDS011;12832;52.392;13.066;2023-04-03T03:36:18;0.30;;;0.30;;
24729;SDS011;12832;52.392;13.066;2023-04-03T03:38:45;0.40;;;0.30;;
24729;SDS011;12832;52.392;13.066;2023-04-03T03:41:11;2.47;;;0.50;;
24729;SDS011;12832;52.392;13.066;2023-04-03T03:43:37;0.95;;;0.40;;
24729;SDS011;12832;52.392;13.066;2023-04-03T03:46:03;0.40;;;0.30;;
24729;SDS011;12832;52.392;13.066;2023-04-03T03:48:29;0.65;;;0.40;;
24729;SDS011;12832;52.392;13.066;2023-04-03T03:50:55;0.68;;;0.38;;
24729;SDS011;12832;52.392;13.066;2023-04-03T03:53:21;0.43;;;0.40;;
24729;SDS011;12832;52.392;13.066;2023-04-03T03:55:48;0.28;;;0.20;;
24729;SDS011;12832;52.392;13.066;2023-04-03T03:58:14;0.80;;;0.50;;
24729;SDS011;12832;52.392;13.066;2023-04-03T04:00:40;0.50;;;0.30;;
24729;SDS011;12832;52.392;13.066;2023-04-03T04:03:06;0.73;;;0.65;;
24729;SDS011;12832;52.392;13.066;2023-04-03T04:05:32;0.45;;;0.38;;
24729;SDS011;12832;52.392;13.066;2023-04-03T04:07:58;0.45;;;0.40;;
24729;SDS011;12832;52.392;13.066;2023-04-03T04:10:25;0.45;;;0.40;;
24729;SDS011;12832;52.392;13.066;2023-04-03T04:12:51;0.30;;;0.30;;
24729;SDS011;12832;52.392;13.066;2023-04-03T04:15:17;0.45;;;0.45;;
24729;SDS011;12832;52.392;13.066;2023-04-03T04:17:43;0.30;;;0.30;;
24729;SDS011;12832;52.392;13.066;2023-04-03T04:20:10;0.50;;;0.32;;
24729;SDS011;12832;52.392;13.066;2023-04-03T04:22:37;0.45;;;0.30;;
24729;SDS011;12832;52.392;13.066;2023-04-03T04:25:04;0.20;;;0.20;;
24729;SDS011;12832;52.392;13.066;2023-04-03T04:27:30;0.38;;;0.30;;
24729;SDS011;12832;52.392;13.066;2023-04-03T04:29:56;0.22;;;0.22;;
24729;SDS011;12832;52.392;13.066;2023-04-03T04:32:24;0.40;;;0.40;;
24729;SDS011;12832;52.392;13.066;2023-04-03T04:34:50;0.20;;;0.20;;
24729;SDS011;12832;52.392;13.066;2023-04-03T04:37:16;0.28;;;0.28;;
24729;SDS011;12832;52.392;13.066;2023-04-03T04:39:42;0.70;;;0.40;;
24729;SDS011;12832;52.392;13.066;2023-04-03T04:42:09;0.77;;;0.40;;
24729;SDS011;12832;52.392;13.066;2023-04-03T04:44:38;1.02;;;0.40;;
24729;SDS011;12832;52.392;13.066;2023-04-03T04:47:04;0.40;;;0.40;;
24729;SDS011;12832;52.392;13.066;2023-04-03T04:49:30;0.47;;;0.38;;
24729;SDS011;12832;52.392;13.066;2023-04-03T04:51:57;0.50;;;0.40;;
24729;SDS011;12832;52.392;13.066;2023-04-03T04:54:23;0.40;;;0.30;;
24729;SDS011;12832;52.392;13.066;2023-04-03T04:56:49;0.75;;;0.50;;
24729;SDS011;12832;52.392;13.066;2023-04-03T04:59:15;0.40;;;0.32;;
24729;SDS011;12832;52.392;13.066;2023-04-03T05:01:41;0.50;;;0.43;;
24729;SDS011;12832;52.392;13.066;2023-04-03T05:04:08;0.30;;;0.30;;
24729;SDS011;12832;52.392;13.066;2023-04-03T05:06:35;1.38;;;0.43;;
24729;SDS011;12832;52.392;13.066;2023-04-03T05:09:01;1.10;;;0.45;;
24729;SDS011;12832;52.392;13.066;2023-04-03T05:11:28;0.40;;;0.30;;
24729;SDS011;12832;52.392;13.066;2023-04-03T05:13:54;0.90;;;0.60;;
24729;SDS011;12832;52.392;13.066;2023-04-03T05:16:20;2.13;;;0.60;;
24729;SDS011;12832;52.392;13.066;2023-04-03T05:18:46;0.70;;;0.45;;
24729;SDS011;12832;52.392;13.066;2023-04-03T05:21:12;1.35;;;0.60;;
24729;SDS011;12832;52.392;13.066;2023-04-03T05:23:39;1.02;;;0.50;;
24729;SDS011;12832;52.392;13.066;2023-04-03T05:26:05;0.40;;;0.40;;
24729;SDS011;12832;52.392;13.066;2023-04-03T05:28:31;1.30;;;0.50;;
24729;SDS011;12832;52.392;13.066;2023-04-03T05:30:58;0.65;;;0.52;;
24729;SDS011;12832;52.392;13.066;2023-04-03T05:33:25;0.80;;;0.52;;
24729;SDS011;12832;52.392;13.066;2023-04-03T05:35:53;1.02;;;0.50;;
24729;SDS011;12832;52.392;13.066;2023-04-03T05:38:20;2.75;;;0.63;;
24729;SDS011;12832;52.392;13.066;2023-04-03T05:40:46;1.25;;;0.77;;
24729;SDS011;12832;52.392;13.066;2023-04-03T05:43:12;1.45;;;0.80;;
24729;SDS011;12832;52.392;13.066;2023-04-03T05:45:39;1.92;;;1.08;;
24729;SDS011;12832;52.392;13.066;2023-04-03T05:48:10;1.63;;;1.20;;
24729;SDS011;12832;52.392;13.066;2023-04-03T05:50:38;3.38;;;1.00;;
24729;SDS011;12832;52.392;13.066;2023-04-03T05:53:11;3.05;;;1.10;;
24729;SDS011;12832;52.392;13.066;2023-04-03T05:55:48;1.92;;;0.80;;
24729;SDS011;12832;52.392;13.066;2023-04-03T05:58:15;1.73;;;1.00;;
24729;SDS011;12832;52.392;13.066;2023-04-03T06:00:41;5.22;;;1.02;;
24729;SDS011;12832;52.392;13.066;2023-04-03T06:03:08;2.40;;;0.95;;
24729;SDS011;12832;52.392;13.066;2023-04-03T06:05:34;5.22;;;1.33;;
24729;SDS011;12832;52.392;13.066;2023-04-03T06:08:02;1.20;;;0.77;;
24729;SDS011;12832;52.392;13.066;2023-04-03T06:10:31;2.22;;;0.70;;
24729;SDS011;12832;52.392;13.066;2023-04-03T06:12:58;1.45;;;0.80;;
24729;SDS011;12832;52.392;13.066;2023-04-03T06:15:24;0.95;;;0.60;;
24729;SDS011;12832;52.392;13.066;2023-04-03T06:17:50;1.58;;;0.80;;
24729;SDS011;12832;52.392;13.066;2023-04-03T06:20:17;2.25;;;0.80;;
24729;SDS011;12832;52.392;13.066;2023-04-03T06:22:44;2.40;;;1.20;;
24729;SDS011;12832;52.392;13.066;2023-04-03T06:25:12;2.08;;;0.90;;
24729;SDS011;12832;52.392;13.066;2023-04-03T06:27:41;3.25;;;1.20;;
24729;SDS011;12832;52.392;13.066;2023-04-03T06:30:08;1.38;;;0.90;;
24729;SDS011;12832;52.392;13.066;2023-04-03T06:32:35;1.40;;;1.00;;
24729;SDS011;12832;52.392;13.066;2023-04-03T06:35:01;2.75;;;1.17;;
24729;SDS011;12832;52.392;13.066;2023-04-03T06:37:27;1.98;;;1.13;;
24729;SDS011;12832;52.392;13.066;2023-04-03T06:39:54;2.20;;;1.50;;
24729;SDS011;12832;52.392;13.066;2023-04-03T06:42:21;5.40;;;2.22;;
24729;SDS011;12832;52.392;13.066;2023-04-03T06:44:47;2.00;;;1.40;;
24729;SDS011;12832;52.392;13.066;2023-04-03T06:47:14;3.50;;;1.38;;
24729;SDS011;12832;52.392;13.066;2023-04-03T06:49:42;2.42;;;1.52;;
24729;SDS011;12832;52.392;13.066;2023-04-03T06:52:08;4.35;;;1.85;;
24729;SDS011;12832;52.392;13.066;2023-04-03T06:54:35;5.72;;;1.52;;
24729;SDS011;12832;52.392;13.066;2023-04-03T06:57:01;6.22;;;1.45;;
24729;SDS011;12832;52.392;13.066;2023-04-03T06:59:28;5.50;;;1.75;;
24729;SDS011;12832;52.392;13.066;2023-04-03T07:01:54;2.97;;;1.42;;
24729;SDS011;12832;52.392;13.066;2023-04-03T07:04:20;4.85;;;1.50;;
24729;SDS011;12832;52.392;13.066;2023-04-03T07:06:47;2.58;;;0.85;;
24729;SDS011;12832;52.392;13.066;2023-04-03T07:09:13;2.72;;;1.30;;
24729;SDS011;12832;52.392;13.066;2023-04-03T07:11:40;2.15;;;1.25;;
24729;SDS011;12832;52.392;13.066;2023-04-03T07:14:06;3.53;;;1.00;;
24729;SDS011;12832;52.392;13.066;2023-04-03T07:16:33;1.08;;;0.63;;
24729;SDS011;12832;52.392;13.066;2023-04-03T07:19:00;3.38;;;1.30;;
24729;SDS011;12832;52.392;13.066;2023-04-03T07:21:27;3.13;;;1.10;;
24729;SDS011;12832;52.392;13.066;2023-04-03T07:23:54;2.13;;;1.00;;
24729;SDS011;12832;52.392;13.066;2023-04-03T07:26:21;2.38;;;0.80;;
24729;SDS011;12832;52.392;13.066;2023-04-03T07:28:48;4.65;;;1.38;;
24729;SDS011;12832;52.392;13.066;2023-04-03T07:31:15;6.72;;;1.25;;
24729;SDS011;12832;52.392;13.066;2023-04-03T07:33:43;6.88;;;1.58;;
24729;SDS011;12832;52.392;13.066;2023-04-03T07:36:11;8.38;;;2.03;;
24729;SDS011;12832;52.392;13.066;2023-04-03T07:38:42;7.05;;;1.83;;
24729;SDS011;12832;52.392;13.066;2023-04-03T07:41:10;6.75;;;1.70;;
24729;SDS011;12832;52.392;13.066;2023-04-03T07:43:40;7.85;;;1.83;;
24729;SDS011;12832;52.392;13.066;2023-04-03T07:46:07;5.45;;;1.92;;
24729;SDS011;12832;52.392;13.066;2023-04-03T07:48:35;4.20;;;1.70;;
24729;SDS011;12832;52.392;13.066;2023-04-03T07:51:02;6.20;;;2.03;;
24729;SDS011;12832;52.392;13.066;2023-04-03T07:53:30;4.68;;;1.60;;
24729;SDS011;12832;52.392;13.066;2023-04-03T07:55:57;5.55;;;1.27;;
24729;SDS011;12832;52.392;13.066;2023-04-03T07:58:25;5.25;;;1.52;;
24729;SDS011;12832;52.392;13.066;2023-04-03T08:00:51;1.90;;;0.80;;
24729;SDS011;12832;52.392;13.066;2023-04-03T08:03:17;4.22;;;1.40;;
24729;SDS011;12832;52.392;13.066;2023-04-03T08:05:45;3.25;;;1.27;;
24729;SDS011;12832;52.392;13.066;2023-04-03T08:08:14;2.05;;;1.30;;
24729;SDS011;12832;52.392;13.066;2023-04-03T08:10:52;3.75;;;1.52;;
24729;SDS011;12832;52.392;13.066;2023-04-03T08:13:32;4.20;;;1.35;;
24729;SDS011;12832;52.392;13.066;2023-04-03T08:16:06;2.78;;;1.27;;
24729;SDS011;12832;52.392;13.066;2023-04-03T08:18:39;4.65;;;1.45;;
24729;SDS011;12832;52.392;13.066;2023-04-03T08:21:08;5.82;;;1.45;;
24729;SDS011;12832;52.392;13.066;2023-04-03T08:23:36;5.45;;;1.50;;
24729;SDS011;12832;52.392;13.066;2023-04-03T08:26:11;2.78;;;1.50;;
24729;SDS011;12832;52.392;13.066;2023-04-03T08:28:39;5.13;;;1.45;;
24729;SDS011;12832;52.392;13.066;2023-04-03T08:31:11;2.70;;;1.10;;
24729;SDS011;12832;52.392;13.066;2023-04-03T08:33:41;3.05;;;1.42;;
24729;SDS011;12832;52.392;13.066;2023-04-03T08:36:14;2.03;;;1.10;;
24729;SDS011;12832;52.392;13.066;2023-04-03T08:38:46;6.22;;;1.38;;
24729;SDS011;12832;52.392;13.066;2023-04-03T08:41:14;3.47;;;1.35;;
24729;SDS011;12832;52.392;13.066;2023-04-03T08:47:06;4.22;;;1.30;;
24729;SDS011;12832;52.392;13.066;2023-04-03T08:50:14;5.65;;;1.65;;
24729;SDS011;12832;52.392;13.066;2023-04-03T08:52:53;3.97;;;1.23;;
24729;SDS011;12832;52.392;13.066;2023-04-03T08:55:29;5.07;;;1.70;;
24729;SDS011;12832;52.392;13.066;2023-04-03T08:58:01;3.95;;;1.67;;
24729;SDS011;12832;52.392;13.066;2023-04-03T09:03:20;4.38;;;1.35;;
24729;SDS011;12832;52.392;13.066;2023-04-03T09:05:49;3.55;;;1.65;;
24729;SDS011;12832;52.392;13.066;2023-04-03T09:08:23;11.35;;;2.47;;
24729;SDS011;12832;52.392;13.066;2023-04-03T09:16:55;6.35;;;1.73;;
24729;SDS011;12832;52.392;13.066;2023-04-03T09:22:31;1.80;;;0.77;;
24729;SDS011;12832;52.392;13.066;2023-04-03T09:25:18;2.35;;;1.23;;
24729;SDS011;12832;52.392;13.066;2023-04-03T09:27:48;3.22;;;0.80;;
24729;SDS011;12832;52.392;13.066;2023-04-03T09:30:16;0.95;;;0.73;;
24729;SDS011;12832;52.392;13.066;2023-04-03T09:32:47;2.53;;;0.75;;
24729;SDS011;12832;52.392;13.066;2023-04-03T09:35:35;2.08;;;0.73;;
24729;SDS011;12832;52.392;13.066;2023-04-03T09:40:48;2.25;;;0.90;;
24729;SDS011;12832;52.392;13.066;2023-04-03T09:43:26;0.93;;;0.80;;
24729;SDS011;12832;52.392;13.066;2023-04-03T09:46:20;2.15;;;0.80;;
24729;SDS011;12832;52.392;13.066;2023-04-03T09:49:02;2.00;;;0.90;;
24729;SDS011;12832;52.392;13.066;2023-04-03T09:51:42;3.47;;;1.00;;
24729;SDS011;12832;52.392;13.066;2023-04-03T09:54:33;1.67;;;0.80;;
24729;SDS011;12832;52.392;13.066;2023-04-03T09:57:09;2.65;;;0.70;;
24729;SDS011;12832;52.392;13.066;2023-04-03T10:02:28;1.45;;;0.60;;
24729;SDS011;12832;52.392;13.066;2023-04-03T10:04:56;1.20;;;0.70;;
24729;SDS011;12832;52.392;13.066;2023-04-03T10:07:36;1.30;;;0.57;;
24729;SDS011;12832;52.392;13.066;2023-04-03T10:10:15;1.88;;;0.70;;
24729;SDS011;12832;52.392;13.066;2023-04-03T10:12:43;1.75;;;0.60;;
24729;SDS011;12832;52.392;13.066;2023-04-03T10:15:13;1.20;;;0.80;;
24729;SDS011;12832;52.392;13.066;2023-04-03T10:18:19;3.00;;;0.73;;
24729;SDS011;12832;52.392;13.066;2023-04-03T10:20:51;1.77;;;0.60;;
24729;SDS011;12832;52.392;13.066;2023-04-03T10:23:40;2.13;;;0.82;;
24729;SDS011;12832;52.392;13.066;2023-04-03T10:32:25;2.53;;;0.88;;
24729;SDS011;12832;52.392;13.066;2023-04-03T10:49:09;1.92;;;0.95;;
24729;SDS011;12832;52.392;13.066;2023-04-03T10:51:48;1.65;;;0.80;;
24729;SDS011;12832;52.392;13.066;2023-04-03T10:54:24;1.45;;;1.00;;
24729;SDS011;12832;52.392;13.066;2023-04-03T10:56:54;1.45;;;1.00;;
24729;SDS011;12832;52.392;13.066;2023-04-03T10:59:49;2.10;;;1.08;;
24729;SDS011;12832;52.392;13.066;2023-04-03T11:05:30;1.75;;;0.68;;
24729;SDS011;12832;52.392;13.066;2023-04-03T11:08:11;1.55;;;0.90;;
24729;SDS011;12832;52.392;13.066;2023-04-03T11:11:00;1.30;;;0.70;;
24729;SDS011;12832;52.392;13.066;2023-04-03T11:13:38;1.48;;;0.85;;
24729;SDS011;12832;52.392;13.066;2023-04-03T11:16:12;2.85;;;1.10;;
24729;SDS011;12832;52.392;13.066;2023-04-03T11:21:39;1.63;;;0.70;;
24729;SDS011;12832;52.392;13.066;2023-04-03T11:24:15;1.35;;;0.82;;
24729;SDS011;12832;52.392;13.066;2023-04-03T11:27:09;1.95;;;0.95;;
24729;SDS011;12832;52.392;13.066;2023-04-03T11:29:43;3.13;;;1.20;;
24729;SDS011;12832;52.392;13.066;2023-04-03T11:32:17;1.75;;;1.00;;
24729;SDS011;12832;52.392;13.066;2023-04-03T11:35:06;2.47;;;0.93;;
24729;SDS011;12832;52.392;13.066;2023-04-03T11:37:53;2.13;;;0.90;;
24729;SDS011;12832;52.392;13.066;2023-04-03T11:40:25;1.13;;;0.82;;
24729;SDS011;12832;52.392;13.066;2023-04-03T11:45:46;1.67;;;0.85;;
24729;SDS011;12832;52.392;13.066;2023-04-03T11:50:51;2.63;;;0.98;;
24729;SDS011;12832;52.392;13.066;2023-04-03T11:53:32;0.85;;;0.68;;
24729;SDS011;12832;52.392;13.066;2023-04-03T12:01:44;1.00;;;0.90;;
24729;SDS011;12832;52.392;13.066;2023-04-03T12:04:20;2.08;;;1.00;;
24729;SDS011;12832;52.392;13.066;2023-04-03T12:06:51;2.08;;;1.02;;
24729;SDS011;12832;52.392;13.066;2023-04-03T12:11:59;1.40;;;0.80;;
24729;SDS011;12832;52.392;13.066;2023-04-03T12:14:28;2.05;;;0.90;;
24729;SDS011;12832;52.392;13.066;2023-04-03T12:16:55;1.38;;;0.63;;
24729;SDS011;12832;52.392;13.066;2023-04-03T12:19:32;1.73;;;0.80;;
24729;SDS011;12832;52.392;13.066;2023-04-03T12:22:10;1.40;;;1.00;;
24729;SDS011;12832;52.392;13.066;2023-04-03T12:24:42;2.65;;;0.80;;
24729;SDS011;12832;52.392;13.066;2023-04-03T12:27:26;2.10;;;1.02;;
24729;SDS011;12832;52.392;13.066;2023-04-03T12:38:33;1.60;;;1.30;;
24729;SDS011;12832;52.392;13.066;2023-04-03T12:41:18;0.90;;;0.52;;
24729;SDS011;12832;52.392;13.066;2023-04-03T12:44:11;1.10;;;0.70;;
24729;SDS011;12832;52.392;13.066;2023-04-03T12:46:53;0.98;;;0.73;;
24729;SDS011;12832;52.392;13.066;2023-04-03T12:49:33;1.77;;;0.50;;
24729;SDS011;12832;52.392;13.066;2023-04-03T12:52:29;1.38;;;0.88;;
24729;SDS011;12832;52.392;13.066;2023-04-03T12:55:14;2.38;;;0.80;;
24729;SDS011;12832;52.392;13.066;2023-04-03T12:57:46;1.58;;;0.80;;
24729;SDS011;12832;52.392;13.066;2023-04-03T13:00:21;1.00;;;0.82;;
24729;SDS011;12832;52.392;13.066;2023-04-03T13:02:55;2.50;;;1.00;;
24729;SDS011;12832;52.392;13.066;2023-04-03T13:05:23;1.25;;;0.63;;
24729;SDS011;12832;52.392;13.066;2023-04-03T13:07:59;1.08;;;0.70;;
24729;SDS011;12832;52.392;13.066;2023-04-03T13:10:30;0.70;;;0.70;;
24729;SDS011;12832;52.392;13.066;2023-04-03T13:13:06;0.80;;;0.63;;
24729;SDS011;12832;52.392;13.066;2023-04-03T13:15:45;1.15;;;0.63;;
24729;SDS011;12832;52.392;13.066;2023-04-03T13:18:22;1.90;;;0.70;;
24729;SDS011;12832;52.392;13.066;2023-04-03T13:20:51;0.88;;;0.70;;
24729;SDS011;12832;52.392;13.066;2023-04-03T13:23:22;1.27;;;0.60;;
24729;SDS011;12832;52.392;13.066;2023-04-03T13:25:50;0.95;;;0.60;;
24729;SDS011;12832;52.392;13.066;2023-04-03T13:28:20;1.27;;;0.65;;
24729;SDS011;12832;52.392;13.066;2023-04-03T13:30:59;1.23;;;0.68;;
24729;SDS011;12832;52.392;13.066;2023-04-03T13:36:40;0.98;;;0.50;;
24729;SDS011;12832;52.392;13.066;2023-04-03T13:41:43;1.35;;;0.60;;
24729;SDS011;12832;52.392;13.066;2023-04-03T13:46:55;2.25;;;0.68;;
24729;SDS011;12832;52.392;13.066;2023-04-03T13:51:55;1.70;;;0.70;;
24729;SDS011;12832;52.392;13.066;2023-04-03T13:54:36;1.05;;;0.70;;
24729;SDS011;12832;52.392;13.066;2023-04-03T13:57:14;0.63;;;0.50;;
24729;SDS011;12832;52.392;13.066;2023-04-03T13:59:44;1.08;;;0.85;;
24729;SDS011;12832;52.392;13.066;2023-04-03T14:02:15;1.15;;;0.60;;
24729;SDS011;12832;52.392;13.066;2023-04-03T14:04:50;0.85;;;0.70;;
24729;SDS011;12832;52.392;13.066;2023-04-03T14:07:43;1.15;;;0.80;;
24729;SDS011;12832;52.392;13.066;2023-04-03T14:10:16;0.60;;;0.50;;
24729;SDS011;12832;52.392;13.066;2023-04-03T14:12:46;0.55;;;0.55;;
24729;SDS011;12832;52.392;13.066;2023-04-03T14:15:18;2.15;;;0.70;;
24729;SDS011;12832;52.392;13.066;2023-04-03T14:17:54;0.85;;;0.63;;
24729;SDS011;12832;52.392;13.066;2023-04-03T14:20:31;1.27;;;0.40;;
24729;SDS011;12832;52.392;13.066;2023-04-03T14:23:01;0.70;;;0.60;;
24729;SDS011;12832;52.392;13.066;2023-04-03T14:25:29;0.60;;;0.60;;
24729;SDS011;12832;52.392;13.066;2023-04-03T14:27:58;1.08;;;0.70;;
24729;SDS011;12832;52.392;13.066;2023-04-03T14:30:28;0.82;;;0.68;;
24729;SDS011;12832;52.392;13.066;2023-04-03T14:33:04;0.82;;;0.57;;
24729;SDS011;12832;52.392;13.066;2023-04-03T14:35:36;0.95;;;0.55;;
24729;SDS011;12832;52.392;13.066;2023-04-03T14:38:11;1.10;;;0.70;;
24729;SDS011;12832;52.392;13.066;2023-04-03T14:40:49;1.58;;;0.70;;
24729;SDS011;12832;52.392;13.066;2023-04-03T14:43:24;0.98;;;0.70;;
24729;SDS011;12832;52.392;13.066;2023-04-03T14:45:53;1.13;;;0.60;;
24729;SDS011;12832;52.392;13.066;2023-04-03T14:48:22;0.65;;;0.63;;
24729;SDS011;12832;52.392;13.066;2023-04-03T14:50:54;2.72;;;0.60;;
24729;SDS011;12832;52.392;13.066;2023-04-03T14:53:32;2.38;;;0.30;;
24729;SDS011;12832;52.392;13.066;2023-04-03T14:56:02;0.88;;;0.68;;
24729;SDS011;12832;52.392;13.066;2023-04-03T14:58:58;1.10;;;0.70;;
24729;SDS011;12832;52.392;13.066;2023-04-03T15:01:30;1.73;;;1.05;;
24729;SDS011;12832;52.392;13.066;2023-04-03T15:04:19;0.88;;;0.60;;
24729;SDS011;12832;52.392;13.066;2023-04-03T15:06:50;0.65;;;0.43;;
24729;SDS011;12832;52.392;13.066;2023-04-03T15:09:21;1.27;;;0.60;;
24729;SDS011;12832;52.392;13.066;2023-04-03T15:11:55;0.75;;;0.50;;
24729;SDS011;12832;52.392;13.066;2023-04-03T15:14:24;1.83;;;0.50;;
24729;SDS011;12832;52.392;13.066;2023-04-03T15:17:02;0.63;;;0.40;;
24729;SDS011;12832;52.392;13.066;2023-04-03T15:19:35;0.60;;;0.57;;
24729;SDS011;12832;52.392;13.066;2023-04-03T15:22:06;0.90;;;0.47;;
24729;SDS011;12832;52.392;13.066;2023-04-03T15:24:38;0.40;;;0.40;;
24729;SDS011;12832;52.392;13.066;2023-04-03T15:27:08;0.60;;;0.40;;
24729;SDS011;12832;52.392;13.066;2023-04-03T15:29:40;0.40;;;0.40;;
24729;SDS011;12832;52.392;13.066;2023-04-03T15:32:12;0.57;;;0.45;;
24729;SDS011;12832;52.392;13.066;2023-04-03T15:34:42;0.73;;;0.50;;
24729;SDS011;12832;52.392;13.066;2023-04-03T15:37:11;0.68;;;0.30;;
24729;SDS011;12832;52.392;13.066;2023-04-03T15:39:39;0.68;;;0.40;;
24729;SDS011;12832;52.392;13.066;2023-04-03T15:42:11;0.40;;;0.40;;
24729;SDS011;12832;52.392;13.066;2023-04-03T15:44:40;0.98;;;0.50;;
24729;SDS011;12832;52.392;13.066;2023-04-03T15:47:14;0.43;;;0.30;;
24729;SDS011;12832;52.392;13.066;2023-04-03T15:49:42;0.20;;;0.20;;
24729;SDS011;12832;52.392;13.066;2023-04-03T15:52:12;0.28;;;0.20;;
24729;SDS011;12832;52.392;13.066;2023-04-03T15:54:40;0.45;;;0.40;;
24729;SDS011;12832;52.392;13.066;2023-04-03T15:57:08;0.40;;;0.35;;
24729;SDS011;12832;52.392;13.066;2023-04-03T15:59:37;0.40;;;0.40;;
24729;SDS011;12832;52.392;13.066;2023-04-03T16:02:05;0.40;;;0.40;;
24729;SDS011;12832;52.392;13.066;2023-04-03T16:04:37;0.25;;;0.25;;
24729;SDS011;12832;52.392;13.066;2023-04-03T16:07:04;1.65;;;0.30;;
24729;SDS011;12832;52.392;13.066;2023-04-03T16:09:34;0.30;;;0.30;;
24729;SDS011;12832;52.392;13.066;2023-04-03T16:12:02;0.30;;;0.30;;
24729;SDS011;12832;52.392;13.066;2023-04-03T16:14:31;0.52;;;0.45;;
24729;SDS011;12832;52.392;13.066;2023-04-03T16:17:00;0.50;;;0.40;;
24729;SDS011;12832;52.392;13.066;2023-04-03T16:19:28;0.30;;;0.30;;
24729;SDS011;12832;52.392;13.066;2023-04-03T16:21:59;0.38;;;0.30;;